Time;durP1;ratioP1;P1;durP2;ratioP2;P2;SDS_P1;SDS_P2;PMS_P1;PMS_P2;Temp;Humidity;BMP_temperature;BMP_pressure;BME280_temperature;BME280_humidity;BME280_pressure;Samples;Min_cycle;Max_cycle;Signal;HPM_P1;HPM_P2
2024/04/02 00:01:09;;;;;;;32.40;6.53;;;512.60;1664.00;;;;;;5035441;28;20033;-76
2024/04/02 00:03:35;;;;;;;31.70;5.25;;;512.10;1715.20;;;;;;5029243;28;20112;-76
2024/04/02 00:06:02;;;;;;;29.30;4.63;;;487.20;1766.40;;;;;;5027611;28;20026;-76
2024/04/02 00:08:28;;;;;;;21.42;3.72;;;487.00;1792.00;;;;;;5023327;28;20025;-75
2024/04/02 00:10:54;;;;;;;20.10;3.78;;;487.00;1817.60;;;;;;5028706;28;20108;-76
2024/04/02 00:13:20;;;;;;;23.80;3.50;;;486.70;1843.20;;;;;;5018714;28;20112;-75
2024/04/02 00:15:47;;;;;;;11.55;1.83;;;486.50;1817.60;;;;;;5031192;28;20033;-75
2024/04/02 00:18:15;;;;;;;19.67;2.72;;;486.40;1843.20;;;;;;5031294;28;20064;-76
2024/04/02 00:20:42;;;;;;;11.10;2.65;;;486.40;1894.40;;;;;;5028708;28;20087;-75
2024/04/02 00:23:08;;;;;;;11.20;2.50;;;486.40;1920.00;;;;;;5043905;28;20046;-80
2024/04/02 00:25:35;;;;;;;13.15;2.42;;;461.60;1971.20;;;;;;5011455;28;20505;-76
2024/04/02 00:28:02;;;;;;;8.20;2.45;;;461.50;1996.80;;;;;;5014120;28;20113;-79
2024/04/02 00:30:29;;;;;;;16.25;1.60;;;461.50;2048.00;;;;;;5039548;28;20021;-76
2024/04/02 00:32:56;;;;;;;11.45;1.10;;;461.30;2099.20;;;;;;5020879;28;20070;-76
2024/04/02 00:35:22;;;;;;;9.23;1.50;;;461.30;2073.60;;;;;;5035896;28;20164;-80
2024/04/02 00:37:48;;;;;;;5.78;0.90;;;461.10;2073.60;;;;;;5035591;28;20025;-75
2024/04/02 00:40:15;;;;;;;6.68;1.45;;;461.10;2150.40;;;;;;5013565;28;20413;-76
2024/04/02 00:42:41;;;;;;;4.55;0.90;;;460.90;2201.60;;;;;;5030645;28;20026;-77
2024/04/02 00:45:07;;;;;;;6.00;1.20;;;460.90;2252.80;;;;;;5014826;28;20025;-76
2024/04/02 00:47:34;;;;;;;15.68;1.90;;;460.90;2304.00;;;;;;5034731;28;20036;-76
2024/04/02 00:50:04;;;;;;;16.60;1.42;;;460.80;2380.80;;;;;;5031220;28;20022;-75
2024/04/02 00:52:30;;;;;;;6.20;1.67;;;460.80;2380.80;;;;;;4998432;28;20026;-76
2024/04/02 00:54:57;;;;;;;7.00;1.73;;;460.80;2380.80;;;;;;5027089;28;20063;-77
2024/04/02 00:57:22;;;;;;;7.47;1.40;;;460.80;2380.80;;;;;;5038186;28;20092;-78
2024/04/02 00:59:48;;;;;;;11.65;1.75;;;436.10;2355.20;;;;;;5033668;28;20518;-76
2024/04/02 01:02:14;;;;;;;7.57;2.05;;;436.10;2355.20;;;;;;5026549;28;20034;-78
2024/04/02 01:04:42;;;;;;;3.92;1.70;;;436.00;2355.20;;;;;;5034288;28;20033;-76
2024/04/02 01:07:08;;;;;;;2.97;1.63;;;436.00;2355.20;;;;;;5019418;28;20040;-76
2024/04/02 01:09:34;;;;;;;3.20;1.20;;;435.80;2355.20;;;;;;5015364;28;20028;-76
2024/04/02 01:12:01;;;;;;;1.65;1.02;;;435.60;2355.20;;;;;;5014423;28;20065;-76
2024/04/02 01:14:28;;;;;;;1.83;0.93;;;435.40;2355.20;;;;;;5034681;28;20045;-76
2024/04/02 01:16:54;;;;;;;3.50;0.88;;;435.30;2355.20;;;;;;5017033;28;20028;-74
2024/04/02 01:19:20;;;;;;;3.75;1.42;;;435.30;2355.20;;;;;;5034907;28;20021;-74
2024/04/02 01:21:45;;;;;;;2.95;0.90;;;435.20;2355.20;;;;;;5034708;28;20025;-74
2024/04/02 01:24:11;;;;;;;8.57;1.17;;;410.40;2355.20;;;;;;5034908;28;20372;-74
2024/04/02 01:26:37;;;;;;;3.88;1.55;;;410.40;2355.20;;;;;;5034699;28;20032;-75
2024/04/02 01:29:03;;;;;;;4.03;1.63;;;410.30;2355.20;;;;;;5016789;28;20026;-74
2024/04/02 01:31:30;;;;;;;4.07;1.08;;;410.20;2355.20;;;;;;5016498;28;20101;-78
2024/04/02 01:33:56;;;;;;;3.63;1.33;;;410.00;2355.20;;;;;;5034528;28;20462;-75
2024/04/02 01:36:22;;;;;;;2.58;1.17;;;409.70;2355.20;;;;;;5034400;28;20032;-76
2024/04/02 01:38:48;;;;;;;2.58;0.90;;;384.90;2329.60;;;;;;5034312;28;20017;-73
2024/04/02 01:41:14;;;;;;;2.35;0.77;;;384.60;2329.60;;;;;;5034134;28;20478;-75
2024/04/02 01:43:40;;;;;;;3.70;0.55;;;384.60;2329.60;;;;;;5034353;28;20036;-76
2024/04/02 01:46:05;;;;;;;3.35;0.73;;;384.40;2329.60;;;;;;5034139;28;20025;-75
2024/04/02 01:48:31;;;;;;;2.72;0.75;;;384.30;2329.60;;;;;;5034623;28;20034;-75
2024/04/02 01:50:57;;;;;;;2.05;0.77;;;384.40;2329.60;;;;;;5045422;28;20022;-75
2024/04/02 01:53:23;;;;;;;0.77;0.40;;;384.30;2329.60;;;;;;5034269;28;20025;-74
2024/04/02 01:55:49;;;;;;;1.08;0.50;;;384.20;2329.60;;;;;;5033805;28;20471;-75
2024/04/02 01:58:15;;;;;;;2.83;0.90;;;384.30;2329.60;;;;;;5034151;28;20017;-75
2024/04/02 02:00:40;;;;;;;1.17;0.52;;;384.00;2329.60;;;;;;5033477;28;20029;-75
2024/04/02 02:03:06;;;;;;;3.78;0.68;;;384.10;2329.60;;;;;;5032346;28;20052;-75
2024/04/02 02:05:32;;;;;;;1.08;0.45;;;359.30;2329.60;;;;;;5027936;28;20471;-75
2024/04/02 02:07:58;;;;;;;0.70;0.40;;;359.30;2329.60;;;;;;5033777;28;20036;-76
2024/04/02 02:10:24;;;;;;;1.33;0.45;;;359.20;2329.60;;;;;;5033184;28;20021;-76
2024/04/02 02:12:49;;;;;;;3.55;0.57;;;359.10;2329.60;;;;;;5033796;28;20029;-75
2024/04/02 02:15:16;;;;;;;1.83;0.47;;;359.10;2329.60;;;;;;5033527;28;20048;-76
2024/04/02 02:17:46;;;;;;;0.30;0.30;;;359.10;2329.60;;;;;;5030562;28;20029;-76
2024/04/02 02:20:12;;;;;;;0.55;0.32;;;359.10;2329.60;;;;;;5033421;28;20033;-73
2024/04/02 02:22:38;;;;;;;0.55;0.32;;;359.10;2329.60;;;;;;5033532;28;20379;-75
2024/04/02 02:25:04;;;;;;;1.52;0.55;;;359.00;2329.60;;;;;;5033343;28;20025;-74
2024/04/02 02:27:30;;;;;;;2.00;0.40;;;359.00;2329.60;;;;;;5033541;28;20123;-75
2024/04/02 02:29:55;;;;;;;0.40;0.30;;;359.00;2329.60;;;;;;5032876;28;20171;-75
2024/04/02 02:32:21;;;;;;;1.00;0.50;;;359.00;2329.60;;;;;;5033409;28;20071;-75
2024/04/02 02:34:47;;;;;;;0.38;0.30;;;359.00;2329.60;;;;;;5043226;28;20398;-75
2024/04/02 02:37:13;;;;;;;0.75;0.45;;;359.10;2329.60;;;;;;5032771;28;20025;-76
2024/04/02 02:39:38;;;;;;;1.27;0.90;;;359.10;2329.60;;;;;;5033237;28;20025;-75
2024/04/02 02:42:05;;;;;;;1.77;0.45;;;359.10;2329.60;;;;;;5033419;28;20025;-75
2024/04/02 02:44:30;;;;;;;0.28;0.28;;;359.20;2329.60;;;;;;5032801;28;20030;-76
2024/04/02 02:46:56;;;;;;;0.28;0.20;;;359.10;2329.60;;;;;;5033243;28;20029;-74
2024/04/02 02:49:22;;;;;;;2.25;1.05;;;359.10;2329.60;;;;;;5033056;28;20383;-75
2024/04/02 02:51:48;;;;;;;0.20;0.20;;;359.00;2329.60;;;;;;5032929;28;20486;-75
2024/04/02 02:54:14;;;;;;;1.00;0.40;;;359.00;2329.60;;;;;;5032653;28;20064;-76
2024/04/02 02:56:41;;;;;;;0.30;0.30;;;359.00;2329.60;;;;;;5033170;28;20033;-75
2024/04/02 02:59:07;;;;;;;0.40;0.30;;;358.90;2329.60;;;;;;5030908;28;20067;-76
2024/04/02 03:01:32;;;;;;;0.35;0.22;;;359.00;2329.60;;;;;;5032664;28;20021;-76
2024/04/02 03:03:58;;;;;;;0.40;0.40;;;358.90;2329.60;;;;;;5032662;28;20061;-75
2024/04/02 03:06:24;;;;;;;0.65;0.45;;;358.90;2329.60;;;;;;5033144;28;20491;-76
2024/04/02 03:08:50;;;;;;;0.40;0.30;;;358.90;2329.60;;;;;;5028754;28;20057;-75
2024/04/02 03:11:16;;;;;;;0.52;0.30;;;358.90;2329.60;;;;;;5027800;28;20045;-74
2024/04/02 03:13:42;;;;;;;0.40;0.35;;;358.80;2329.60;;;;;;5030920;28;20029;-75
2024/04/02 03:16:08;;;;;;;0.60;0.40;;;358.90;2329.60;;;;;;5029241;28;20103;-75
2024/04/02 03:18:33;;;;;;;0.22;0.22;;;358.90;2329.60;;;;;;5032628;28;20536;-75
2024/04/02 03:21:00;;;;;;;0.98;0.38;;;358.90;2329.60;;;;;;5033189;28;20025;-75
2024/04/02 03:23:27;;;;;;;0.35;0.30;;;358.90;2329.60;;;;;;5032312;28;20052;-80
2024/04/02 03:26:00;;;;;;;0.32;0.28;;;358.80;2329.60;;;;;;5032804;28;20026;-75
2024/04/02 03:28:27;;;;;;;0.68;0.40;;;358.90;2329.60;;;;;;5034747;28;20036;-75
2024/04/02 03:30:57;;;;;;;1.90;0.30;;;358.90;2329.60;;;;;;5043886;28;20427;-76
2024/04/02 03:33:24;;;;;;;0.63;0.50;;;358.90;2329.60;;;;;;5032614;28;20021;-78
2024/04/02 03:35:50;;;;;;;0.63;0.43;;;359.00;2329.60;;;;;;5033897;28;20044;-76
2024/04/02 03:38:16;;;;;;;0.57;0.30;;;359.00;2329.60;;;;;;5032188;28;20390;-75
2024/04/02 03:40:42;;;;;;;1.38;0.40;;;359.00;2329.60;;;;;;5032811;28;20021;-76
2024/04/02 03:43:08;;;;;;;1.48;0.40;;;359.00;2329.60;;;;;;5029241;28;20033;-76
2024/04/02 03:45:41;;;;;;;0.20;0.20;;;359.00;2329.60;;;;;;5042204;28;20030;-77
2024/04/02 03:48:08;;;;;;;0.40;0.30;;;359.10;2329.60;;;;;;5034029;28;20062;-76
2024/04/02 03:50:37;;;;;;;0.98;0.40;;;359.20;2329.60;;;;;;5036625;28;20079;-77
2024/04/02 03:53:04;;;;;;;0.90;0.55;;;359.20;2329.60;;;;;;5034494;28;20032;-75
2024/04/02 03:55:36;;;;;;;0.75;0.35;;;359.20;2329.60;;;;;;5036262;28;20086;-75
2024/04/02 03:58:03;;;;;;;0.45;0.40;;;359.20;2329.60;;;;;;5036342;28;20013;-75
2024/04/02 04:00:29;;;;;;;0.98;0.45;;;359.20;2329.60;;;;;;5036444;28;20025;-75
2024/04/02 04:02:56;;;;;;;3.85;0.63;;;359.20;2329.60;;;;;;5035522;28;20128;-75
2024/04/02 04:05:22;;;;;;;4.35;0.60;;;359.20;2329.60;;;;;;5018255;28;20505;-75
2024/04/02 04:07:48;;;;;;;3.20;0.80;;;359.20;2329.60;;;;;;5035964;28;20029;-75
2024/04/02 04:10:14;;;;;;;2.72;0.68;;;359.20;2329.60;;;;;;5035805;28;20164;-75
2024/04/02 04:12:43;;;;;;;0.68;0.45;;;359.20;2329.60;;;;;;5018186;28;20017;-75
2024/04/02 04:15:09;;;;;;;0.35;0.35;;;359.30;2329.60;;;;;;5035542;28;20152;-77
2024/04/02 04:17:35;;;;;;;1.33;0.35;;;384.00;2329.60;;;;;;5036333;28;20478;-76
2024/04/02 04:20:01;;;;;;;3.40;0.60;;;384.10;2329.60;;;;;;5021301;28;20388;-75
2024/04/02 04:22:26;;;;;;;2.22;0.50;;;384.20;2329.60;;;;;;5019473;28;20121;-75
2024/04/02 04:25:03;;;;;;;0.65;0.60;;;384.20;2329.60;;;;;;5042015;28;20386;-75
2024/04/02 04:27:32;;;;;;;0.70;0.40;;;384.30;2329.60;;;;;;5017148;28;20033;-76
2024/04/02 04:30:01;;;;;;;3.42;0.60;;;384.40;2329.60;;;;;;5035342;28;20204;-75
2024/04/02 04:32:27;;;;;;;1.83;0.70;;;384.40;2329.60;;;;;;5035972;28;20076;-75
2024/04/02 04:34:53;;;;;;;0.90;0.50;;;384.40;2329.60;;;;;;5035250;28;20079;-76
2024/04/02 04:37:19;;;;;;;5.07;1.17;;;384.40;2329.60;;;;;;5035678;28;20461;-75
2024/04/02 04:39:45;;;;;;;0.43;0.30;;;384.40;2329.60;;;;;;5017347;28;20369;-76
2024/04/02 04:42:11;;;;;;;0.68;0.45;;;384.40;2329.60;;;;;;5033004;28;20372;-76
2024/04/02 04:44:36;;;;;;;0.93;0.30;;;384.40;2329.60;;;;;;5011781;28;20072;-75
2024/04/02 04:47:02;;;;;;;0.47;0.40;;;384.40;2329.60;;;;;;5037466;28;20026;-76
2024/04/02 04:49:28;;;;;;;0.93;0.60;;;384.40;2329.60;;;;;;5038493;28;20100;-76
2024/04/02 04:51:54;;;;;;;0.77;0.40;;;384.40;2329.60;;;;;;5035246;28;20056;-75
2024/04/02 04:54:20;;;;;;;0.70;0.70;;;384.40;2329.60;;;;;;5017389;28;20037;-76
2024/04/02 04:56:46;;;;;;;1.02;0.50;;;384.40;2329.60;;;;;;5035511;28;20044;-75
2024/04/02 04:59:12;;;;;;;0.30;0.30;;;384.40;2329.60;;;;;;5034439;28;20034;-76
2024/04/02 05:01:38;;;;;;;1.48;0.50;;;384.40;2329.60;;;;;;5017275;28;20045;-77
2024/04/02 05:04:04;;;;;;;0.45;0.32;;;384.40;2329.60;;;;;;5016851;28;20107;-76
2024/04/02 05:06:32;;;;;;;0.90;0.43;;;384.40;2329.60;;;;;;5034734;28;20061;-76
2024/04/02 05:08:58;;;;;;;3.20;0.50;;;384.40;2329.60;;;;;;5033590;28;20028;-76
2024/04/02 05:11:24;;;;;;;2.78;0.55;;;384.50;2329.60;;;;;;5032390;28;20038;-75
2024/04/02 05:13:50;;;;;;;0.20;0.20;;;384.40;2329.60;;;;;;5032148;28;20036;-76
2024/04/02 05:16:16;;;;;;;0.50;0.40;;;384.40;2329.60;;;;;;5041293;28;20029;-76
2024/04/02 05:18:42;;;;;;;2.22;0.80;;;384.40;2329.60;;;;;;5052030;28;20128;-76
2024/04/02 05:21:07;;;;;;;1.75;0.70;;;384.40;2329.60;;;;;;5034775;28;20465;-79
2024/04/02 05:23:33;;;;;;;1.35;0.70;;;384.40;2329.60;;;;;;5034634;28;20060;-76
2024/04/02 05:26:00;;;;;;;1.30;0.65;;;384.30;2329.60;;;;;;5034700;28;20048;-76
2024/04/02 05:28:26;;;;;;;2.45;0.70;;;384.20;2329.60;;;;;;5034278;28;20100;-75
2024/04/02 05:30:53;;;;;;;0.70;0.50;;;384.40;2329.60;;;;;;5034750;28;20025;-76
2024/04/02 05:33:19;;;;;;;1.38;0.52;;;384.50;2329.60;;;;;;5034461;28;20033;-75
2024/04/02 05:35:45;;;;;;;0.73;0.63;;;384.50;2329.60;;;;;;5034664;28;20390;-75
2024/04/02 05:38:11;;;;;;;0.80;0.50;;;384.50;2329.60;;;;;;5014020;28;20096;-75
2024/04/02 05:40:39;;;;;;;3.70;0.70;;;384.60;2329.60;;;;;;5044684;28;20033;-77
2024/04/02 05:43:05;;;;;;;0.60;0.60;;;384.40;2329.60;;;;;;5034320;28;20030;-78
2024/04/02 05:45:31;;;;;;;1.42;0.43;;;384.40;2329.60;;;;;;5034159;28;20017;-76
2024/04/02 05:47:57;;;;;;;3.03;1.00;;;384.20;2329.60;;;;;;5016524;28;20475;-77
2024/04/02 05:50:22;;;;;;;0.77;0.47;;;384.00;2329.60;;;;;;5016404;28;20025;-77
2024/04/02 05:52:48;;;;;;;3.67;0.40;;;359.20;2329.60;;;;;;5018722;28;20025;-80
2024/04/02 05:55:16;;;;;;;2.15;0.30;;;359.00;2329.60;;;;;;5033967;28;20030;-77
2024/04/02 05:57:42;;;;;;;0.68;0.40;;;359.00;2329.60;;;;;;5034431;28;20024;-77
2024/04/02 06:00:10;;;;;;;2.42;0.35;;;359.00;2329.60;;;;;;5022097;28;20021;-75
2024/04/02 06:02:37;;;;;;;0.30;0.30;;;359.00;2329.60;;;;;;5012826;28;20041;-75
2024/04/02 06:05:04;;;;;;;0.43;0.30;;;358.80;2329.60;;;;;;5031964;28;20030;-78
2024/04/02 06:07:30;;;;;;;6.22;1.60;;;358.80;2329.60;;;;;;5027916;28;20022;-75
2024/04/02 06:09:56;;;;;;;0.82;0.50;;;358.80;2329.60;;;;;;5031990;28;20026;-75
2024/04/02 06:12:22;;;;;;;0.38;0.32;;;358.80;2329.60;;;;;;5027554;28;20030;-77
2024/04/02 06:14:48;;;;;;;0.50;0.40;;;358.80;2329.60;;;;;;5018476;28;20040;-74
2024/04/02 06:17:13;;;;;;;1.63;0.40;;;358.90;2329.60;;;;;;5009170;28;20112;-76
2024/04/02 06:19:39;;;;;;;0.63;0.40;;;358.80;2329.60;;;;;;5033698;28;20101;-74
2024/04/02 06:22:05;;;;;;;1.60;0.40;;;359.00;2329.60;;;;;;5035065;28;20364;-75
2024/04/02 06:24:31;;;;;;;1.75;0.50;;;359.00;2329.60;;;;;;5013868;28;20358;-75
2024/04/02 06:26:57;;;;;;;2.35;0.85;;;359.00;2329.60;;;;;;5030181;28;20021;-75
2024/04/02 06:29:23;;;;;;;0.50;0.50;;;359.00;2329.60;;;;;;5013001;28;20038;-76
2024/04/02 06:31:49;;;;;;;0.70;0.57;;;359.00;2329.60;;;;;;5017855;28;20041;-76
2024/04/02 06:34:15;;;;;;;0.88;0.43;;;358.80;2329.60;;;;;;5023583;28;20037;-78
2024/04/02 06:36:41;;;;;;;0.35;0.35;;;359.00;2329.60;;;;;;5022485;28;20022;-75
2024/04/02 06:39:09;;;;;;;0.47;0.47;;;359.10;2329.60;;;;;;5027888;28;20466;-75
2024/04/02 06:41:35;;;;;;;1.08;0.63;;;358.90;2329.60;;;;;;5021650;28;20053;-75
2024/04/02 06:44:01;;;;;;;1.35;0.65;;;359.00;2329.60;;;;;;5027193;28;20498;-75
2024/04/02 06:46:27;;;;;;;0.40;0.40;;;358.60;2329.60;;;;;;5028142;28;20080;-74
2024/04/02 06:48:55;;;;;;;0.95;0.50;;;359.00;2329.60;;;;;;5024270;28;20380;-75
2024/04/02 06:51:21;;;;;;;0.65;0.52;;;359.30;2329.60;;;;;;5038332;28;20052;-75
2024/04/02 06:53:47;;;;;;;2.55;0.60;;;384.00;2329.60;;;;;;5029920;28;20052;-76
2024/04/02 06:56:13;;;;;;;0.80;0.52;;;384.10;2329.60;;;;;;5022419;28;20392;-75
2024/04/02 06:58:38;;;;;;;0.90;0.60;;;384.40;2329.60;;;;;;5029655;28;20092;-75
2024/04/02 07:01:04;;;;;;;0.50;0.50;;;384.60;2329.60;;;;;;5024106;28;20479;-77
2024/04/02 07:03:30;;;;;;;0.52;0.40;;;384.50;2329.60;;;;;;5016470;28;20495;-75
2024/04/02 07:05:56;;;;;;;1.73;0.65;;;384.60;2329.60;;;;;;5029671;28;20037;-76
2024/04/02 07:08:25;;;;;;;0.50;0.50;;;384.90;2329.60;;;;;;5033143;28;20032;-76
2024/04/02 07:10:58;;;;;;;2.55;0.70;;;409.70;2355.20;;;;;;5009467;28;20522;-75
2024/04/02 07:13:25;;;;;;;1.85;1.10;;;410.30;2355.20;;;;;;5027985;28;20032;-75
2024/04/02 07:15:52;;;;;;;0.70;0.60;;;409.90;2355.20;;;;;;5025931;28;20030;-75
2024/04/02 07:18:18;;;;;;;2.30;0.73;;;410.40;2355.20;;;;;;5024694;28;20026;-75
2024/04/02 07:20:43;;;;;;;1.27;0.60;;;410.50;2355.20;;;;;;5026544;28;20395;-75
2024/04/02 07:23:09;;;;;;;0.50;0.50;;;435.20;2355.20;;;;;;5023238;28;20076;-77
2024/04/02 07:25:35;;;;;;;1.17;0.50;;;435.30;2355.20;;;;;;5036876;28;20017;-75
2024/04/02 07:28:01;;;;;;;1.02;0.43;;;410.50;2355.20;;;;;;5030707;28;20545;-75
2024/04/02 07:30:27;;;;;;;0.63;0.52;;;410.20;2355.20;;;;;;5033035;28;20032;-76
2024/04/02 07:32:53;;;;;;;0.50;0.45;;;409.70;2355.20;;;;;;5019868;28;20053;-73
2024/04/02 07:35:19;;;;;;;0.40;0.40;;;409.90;2355.20;;;;;;5028655;28;20037;-77
2024/04/02 07:37:45;;;;;;;0.85;0.57;;;409.80;2355.20;;;;;;5031938;28;20377;-74
2024/04/02 07:40:11;;;;;;;0.50;0.40;;;409.80;2355.20;;;;;;5030167;28;20101;-75
2024/04/02 07:42:38;;;;;;;0.88;0.57;;;409.70;2355.20;;;;;;5032468;28;20034;-72
2024/04/02 07:45:04;;;;;;;0.40;0.40;;;409.80;2355.20;;;;;;5034364;28;20148;-77
2024/04/02 07:47:30;;;;;;;1.35;0.40;;;410.00;2355.20;;;;;;5031341;28;20108;-72
2024/04/02 07:49:55;;;;;;;0.45;0.43;;;410.00;2355.20;;;;;;5031232;28;20032;-72
2024/04/02 07:52:21;;;;;;;2.17;0.68;;;410.10;2355.20;;;;;;5031471;28;20029;-76
2024/04/02 07:54:47;;;;;;;2.40;0.40;;;410.20;2355.20;;;;;;5029186;28;20391;-74
2024/04/02 07:57:13;;;;;;;0.60;0.55;;;410.40;2355.20;;;;;;5033693;28;20029;-74
2024/04/02 07:59:39;;;;;;;1.27;0.65;;;435.30;2355.20;;;;;;5034333;28;20036;-74
2024/04/02 08:02:05;;;;;;;0.38;0.38;;;435.20;2355.20;;;;;;5022063;28;20030;-74
2024/04/02 08:04:31;;;;;;;1.33;0.70;;;435.20;2355.20;;;;;;5028892;28;20072;-74
2024/04/02 08:06:57;;;;;;;1.42;0.80;;;435.20;2355.20;;;;;;5030391;28;20476;-75
2024/04/02 08:09:22;;;;;;;1.38;0.60;;;410.40;2355.20;;;;;;5034727;28;20026;-74
2024/04/02 08:11:52;;;;;;;3.45;0.50;;;410.40;2355.20;;;;;;5033004;28;20021;-74
2024/04/02 08:14:22;;;;;;;0.30;0.30;;;410.40;2355.20;;;;;;5030618;28;20082;-73
2024/04/02 08:16:48;;;;;;;1.10;0.60;;;410.30;2355.20;;;;;;5032515;28;20510;-73
2024/04/02 08:19:14;;;;;;;2.83;0.77;;;410.30;2355.20;;;;;;5023949;28;20056;-74
2024/04/02 08:21:40;;;;;;;1.13;0.80;;;410.40;2355.20;;;;;;5031558;28;20120;-74
2024/04/02 08:24:06;;;;;;;0.98;0.40;;;410.50;2355.20;;;;;;5028439;28;20026;-74
2024/04/02 08:26:31;;;;;;;0.55;0.40;;;435.20;2355.20;;;;;;5030359;28;20030;-73
2024/04/02 08:28:57;;;;;;;0.75;0.40;;;435.90;2355.20;;;;;;5035938;28;20075;-76
2024/04/02 08:31:23;;;;;;;0.60;0.60;;;435.70;2355.20;;;;;;5033661;28;20018;-73
2024/04/02 08:33:49;;;;;;;1.63;0.60;;;435.40;2355.20;;;;;;5032231;28;20033;-73
2024/04/02 08:36:15;;;;;;;1.52;0.70;;;435.30;2355.20;;;;;;5031053;28;20030;-72
2024/04/02 08:38:41;;;;;;;0.55;0.45;;;435.20;2355.20;;;;;;5031700;28;20053;-73
2024/04/02 08:41:09;;;;;;;0.80;0.50;;;410.50;2355.20;;;;;;5030879;28;20045;-72
2024/04/02 08:43:35;;;;;;;1.08;0.50;;;435.20;2355.20;;;;;;5030497;28;20029;-72
2024/04/02 08:46:01;;;;;;;0.65;0.57;;;410.50;2355.20;;;;;;5032759;28;20076;-73
2024/04/02 08:48:27;;;;;;;1.42;0.60;;;410.50;2355.20;;;;;;5030286;28;20030;-73
2024/04/02 08:50:55;;;;;;;0.73;0.57;;;410.50;2355.20;;;;;;5028960;28;20030;-78
2024/04/02 08:53:24;;;;;;;2.45;1.10;;;410.30;2355.20;;;;;;5027445;28;20120;-74
2024/04/02 08:55:50;;;;;;;1.52;1.00;;;435.20;2355.20;;;;;;5022574;28;20038;-73
2024/04/02 08:58:17;;;;;;;1.42;0.88;;;435.30;2355.20;;;;;;5034535;28;20562;-72
2024/04/02 09:00:44;;;;;;;1.35;0.90;;;435.30;2355.20;;;;;;5038089;28;20032;-73
2024/04/02 09:03:16;;;;;;;1.65;0.90;;;435.20;2355.20;;;;;;5020038;28;20115;-74
2024/04/02 09:05:42;;;;;;;2.28;0.70;;;435.20;2355.20;;;;;;5033428;28;20027;-73
2024/04/02 09:08:09;;;;;;;16.33;7.22;;;410.50;2355.20;;;;;;5032133;28;20398;-72
2024/04/02 09:10:35;;;;;;;0.80;0.70;;;435.20;2355.20;;;;;;5030142;28;20459;-72
2024/04/02 09:13:01;;;;;;;5.30;1.08;;;435.20;2355.20;;;;;;5025450;28;20017;-74
2024/04/02 09:15:27;;;;;;;1.50;0.80;;;435.20;2355.20;;;;;;5026494;28;20493;-72
2024/04/02 09:17:54;;;;;;;1.38;0.73;;;435.30;2355.20;;;;;;5025292;28;20022;-79
2024/04/02 09:20:19;;;;;;;0.98;0.63;;;435.50;2355.20;;;;;;5025881;28;20022;-76
2024/04/02 09:22:47;;;;;;;1.20;0.80;;;435.30;2355.20;;;;;;5028504;28;20025;-72
2024/04/02 09:25:14;;;;;;;1.98;0.93;;;435.20;2355.20;;;;;;5035465;28;20426;-72
2024/04/02 09:27:40;;;;;;;1.38;0.80;;;435.30;2355.20;;;;;;5028357;28;20025;-78
2024/04/02 09:30:10;;;;;;;1.50;0.63;;;435.40;2355.20;;;;;;5015189;28;20456;-72
2024/04/02 09:32:37;;;;;;;2.40;0.90;;;435.60;2355.20;;;;;;5028797;28;20025;-72
2024/04/02 09:35:12;;;;;;;1.90;1.00;;;435.60;2355.20;;;;;;5025650;28;20120;-73
2024/04/02 09:37:45;;;;;;;1.77;1.10;;;435.90;2355.20;;;;;;5021395;28;20017;-74
2024/04/02 09:40:11;;;;;;;1.33;0.70;;;460.80;2380.80;;;;;;5032271;28;20033;-73
2024/04/02 09:42:39;;;;;;;1.05;0.68;;;436.00;2355.20;;;;;;5028167;28;20034;-72
2024/04/02 09:45:08;;;;;;;0.85;0.75;;;461.00;2329.60;;;;;;5031780;28;20032;-72
2024/04/02 09:47:35;;;;;;;0.95;0.63;;;460.80;2380.80;;;;;;5026929;28;20026;-72
2024/04/02 09:50:05;;;;;;;0.77;0.70;;;435.90;2329.60;;;;;;5028275;28;20109;-72
2024/04/02 09:52:31;;;;;;;1.35;0.75;;;435.60;2329.60;;;;;;5028971;28;20087;-72
2024/04/02 09:54:58;;;;;;;0.50;0.50;;;435.60;2278.40;;;;;;5027217;28;20041;-72
2024/04/02 09:57:28;;;;;;;0.95;0.60;;;435.50;2304.00;;;;;;5036494;28;20029;-72
2024/04/02 09:59:55;;;;;;;0.75;0.57;;;435.70;2304.00;;;;;;5032057;28;20029;-78
2024/04/02 10:02:27;;;;;;;0.90;0.55;;;435.80;2278.40;;;;;;5020929;28;20157;-75
2024/04/02 10:04:55;;;;;;;1.55;0.90;;;435.70;2227.20;;;;;;5031799;28;20017;-73
2024/04/02 10:07:23;;;;;;;1.02;0.65;;;435.80;2252.80;;;;;;5022465;28;20025;-73
2024/04/02 10:09:59;;;;;;;0.95;0.60;;;435.60;2227.20;;;;;;5024838;28;20021;-72
2024/04/02 10:12:30;;;;;;;0.63;0.45;;;435.70;2124.80;;;;;;5029329;28;20075;-73
2024/04/02 10:14:57;;;;;;;0.55;0.50;;;435.80;2176.00;;;;;;5029542;28;20108;-74
2024/04/02 10:17:24;;;;;;;3.22;0.88;;;435.60;2124.80;;;;;;5029131;28;20017;-72
2024/04/02 10:19:51;;;;;;;1.17;0.60;;;435.60;2150.40;;;;;;5028495;28;20109;-73
2024/04/02 10:22:31;;;;;;;2.15;0.60;;;435.70;2150.40;;;;;;5028551;28;20052;-73
2024/04/02 10:25:08;;;;;;;0.60;0.60;;;435.90;2022.40;;;;;;5028688;28;20484;-72
2024/04/02 10:27:34;;;;;;;0.70;0.47;;;461.00;2048.00;;;;;;5015288;28;20071;-74
2024/04/02 10:30:00;;;;;;;0.47;0.40;;;461.10;1945.60;;;;;;5030408;28;20037;-73
2024/04/02 10:32:30;;;;;;;0.68;0.55;;;461.00;1945.60;;;;;;5017287;28;20455;-73
2024/04/02 10:34:56;;;;;;;2.65;0.70;;;461.20;1945.60;;;;;;5023931;28;20125;-73
2024/04/02 10:37:22;;;;;;;2.25;0.70;;;461.10;1945.60;;;;;;5020254;28;20093;-72
2024/04/02 10:39:47;;;;;;;0.50;0.50;;;461.30;1971.20;;;;;;5025165;28;20076;-72
2024/04/02 10:42:14;;;;;;;0.93;0.60;;;;;;;;;;5021906;28;20080;-73
2024/04/02 10:44:40;;;;;;;4.18;0.98;;;486.60;1843.20;;;;;;5021436;28;20037;-72
2024/04/02 10:47:06;;;;;;;1.85;1.00;;;486.70;1843.20;;;;;;5028482;28;20105;-72
2024/04/02 10:49:32;;;;;;;0.73;0.65;;;486.80;1792.00;;;;;;5025459;28;20040;-72
2024/04/02 10:52:07;;;;;;;2.38;0.80;;;;;;;;;;5029479;28;20021;-72
2024/04/02 10:54:34;;;;;;;0.77;0.65;;;512.10;1638.40;;;;;;5024743;28;20368;-71
2024/04/02 10:57:00;;;;;;;1.20;0.75;;;512.50;1612.80;;;;;;5031279;28;20017;-74
2024/04/02 10:59:26;;;;;;;1.88;0.65;;;537.60;1561.60;;;;;;5028177;28;20021;-72
2024/04/02 11:01:55;;;;;;;1.50;0.55;;;538.00;1510.40;;;;;;5032980;28;20531;-74
2024/04/02 11:04:21;;;;;;;0.50;0.50;;;538.30;1536.00;;;;;;5021806;28;20095;-73
2024/04/02 11:06:47;;;;;;;1.75;0.98;;;563.30;1536.00;;;;;;5034006;28;20037;-72
2024/04/02 11:09:13;;;;;;;1.45;0.60;;;563.40;1484.80;;;;;;5027763;28;20021;-74
2024/04/02 11:11:38;;;;;;;2.92;0.73;;;563.40;1510.40;;;;;;5035750;28;20025;-76
2024/04/02 11:14:09;;;;;;;1.10;0.73;;;563.50;1484.80;;;;;;5026518;28;20033;-72
2024/04/02 11:16:36;;;;;;;1.85;0.80;;;563.20;1536.00;;;;;;5027101;28;20026;-72
2024/04/02 11:19:01;;;;;;;0.98;0.63;;;563.70;1536.00;;;;;;5028771;28;20017;-73
2024/04/02 11:21:29;;;;;;;0.52;0.52;;;563.60;1536.00;;;;;;5024652;28;20460;-74
2024/04/02 11:26:48;;;;;;;1.48;0.73;;;538.50;1510.40;;;;;;5028951;28;20105;-71
2024/04/02 11:29:15;;;;;;;1.60;0.80;;;538.20;1536.00;;;;;;5026293;28;20037;-71
2024/04/02 11:31:40;;;;;;;0.90;0.77;;;563.20;1510.40;;;;;;5024590;28;20410;-77
2024/04/02 11:34:06;;;;;;;0.82;0.80;;;538.50;1484.80;;;;;;5020725;28;20026;-72
2024/04/02 11:36:32;;;;;;;0.82;0.73;;;538.50;1484.80;;;;;;5020242;28;20049;-72
2024/04/02 11:38:58;;;;;;;2.33;0.88;;;563.40;1510.40;;;;;;5027345;28;20025;-77
2024/04/02 11:41:25;;;;;;;2.92;1.40;;;563.50;1510.40;;;;;;5023712;28;20017;-74
2024/04/02 11:43:51;;;;;;;1.48;1.10;;;563.90;1459.20;;;;;;5026665;28;20427;-73
2024/04/02 11:46:17;;;;;;;1.00;0.90;;;538.50;1510.40;;;;;;5022771;28;20488;-76
2024/04/02 11:48:42;;;;;;;1.27;0.85;;;538.00;1510.40;;;;;;5030105;28;20032;-71
2024/04/02 11:51:08;;;;;;;1.20;0.90;;;537.80;1587.20;;;;;;5028783;28;20105;-73
2024/04/02 11:53:34;;;;;;;2.20;0.90;;;538.00;1587.20;;;;;;5023704;28;20035;-71
2024/04/02 11:56:00;;;;;;;1.50;1.10;;;538.40;1587.20;;;;;;5030684;28;20033;-72
2024/04/02 12:01:10;;;;;;;1.48;0.90;;;563.60;1536.00;;;;;;5036298;28;20091;-72
2024/04/02 12:03:36;;;;;;;0.98;0.73;;;563.80;1510.40;;;;;;5016718;28;20496;-72
2024/04/02 12:06:01;;;;;;;0.82;0.60;;;563.70;1510.40;;;;;;5030731;28;20021;-74
2024/04/02 12:08:27;;;;;;;1.15;0.90;;;564.10;1510.40;;;;;;5026763;28;20037;-74
2024/04/02 12:10:53;;;;;;;0.77;0.57;;;588.80;1484.80;;;;;;5023992;28;20017;-72
2024/04/02 12:13:19;;;;;;;2.83;1.05;;;588.90;1459.20;;;;;;5029557;28;20026;-73
2024/04/02 12:15:45;;;;;;;2.22;0.80;;;589.10;1459.20;;;;;;5025796;28;20045;-72
2024/04/02 12:18:11;;;;;;;2.35;0.63;;;564.10;1408.00;;;;;;5017896;28;20029;-73
2024/04/02 12:20:36;;;;;;;1.23;0.80;;;563.70;1433.60;;;;;;5039403;28;20021;-73